Time;durP1;ratioP1;P1;durP2;ratioP2;P2;SDS_P1;SDS_P2;PMS_P1;PMS_P2;Temp;Humidity;BMP_temperature;BMP_pressure;BME280_temperature;BME280_humidity;BME280_pressure;Samples;Min_cycle;Max_cycle;Signal;HPM_P1;HPM_P2
2023/07/29 00:01:24;;;;;;;23.63;22.27;;;21.80;99.90;;;;;;5011763;28;20049;-74
2023/07/29 00:03:50;;;;;;;23.13;21.95;;;21.90;99.90;;;;;;5013481;28;20580;-74
2023/07/29 00:06:16;;;;;;;23.08;21.75;;;21.90;99.90;;;;;;5014667;28;20029;-74
2023/07/29 00:08:42;;;;;;;23.90;22.70;;;21.80;99.90;;;;;;5014958;28;20483;-73
2023/07/29 00:11:08;;;;;;;30.17;28.55;;;21.80;99.90;;;;;;5016077;28;20034;-74
2023/07/29 00:13:34;;;;;;;29.33;27.83;;;21.70;99.90;;;;;;5016137;28;20383;-74
2023/07/29 00:16:00;;;;;;;34.10;32.35;;;21.60;99.90;;;;;;5014204;28;20034;-74
2023/07/29 00:18:27;;;;;;;39.60;37.60;;;21.60;99.90;;;;;;5016027;28;20360;-74
2023/07/29 00:20:53;;;;;;;29.63;28.13;;;21.50;99.90;;;;;;5015885;28;20054;-73
2023/07/29 00:23:19;;;;;;;30.92;29.35;;;21.60;99.90;;;;;;5015887;28;20379;-74
2023/07/29 00:25:45;;;;;;;32.05;30.38;;;21.60;99.90;;;;;;5015976;28;20428;-74
2023/07/29 00:28:12;;;;;;;28.38;26.90;;;21.70;99.90;;;;;;5015806;28;20037;-74
2023/07/29 00:30:38;;;;;;;17.67;16.58;;;21.70;99.90;;;;;;5014068;28;20037;-74
2023/07/29 00:33:04;;;;;;;32.17;30.40;;;21.70;99.90;;;;;;5014692;28;20037;-74
2023/07/29 00:35:30;;;;;;;18.88;17.88;;;21.60;99.90;;;;;;5015166;28;20502;-73
2023/07/29 00:37:56;;;;;;;26.40;25.05;;;21.60;99.90;;;;;;5015972;28;20041;-74
2023/07/29 00:40:22;;;;;;;25.02;23.75;;;21.60;99.90;;;;;;5015294;28;20483;-74
2023/07/29 00:42:50;;;;;;;37.92;35.95;;;21.60;99.90;;;;;;5014423;28;20399;-73
2023/07/29 00:45:16;;;;;;;56.83;53.95;;;21.60;99.90;;;;;;5013858;28;20022;-74
2023/07/29 00:47:42;;;;;;;43.28;41.08;;;21.60;99.90;;;;;;5014200;28;20026;-74
2023/07/29 00:50:09;;;;;;;53.45;50.55;;;21.60;99.90;;;;;;4994583;28;20046;-74
2023/07/29 00:52:35;;;;;;;33.35;31.45;;;21.60;99.90;;;;;;4978865;28;20046;-74
2023/07/29 00:55:01;;;;;;;43.00;40.85;;;21.60;99.90;;;;;;4994528;28;20046;-75
2023/07/29 00:57:29;;;;;;;36.85;35.05;;;21.50;99.90;;;;;;5013223;28;20498;-73
2023/07/29 00:59:55;;;;;;;26.15;24.80;;;21.50;99.90;;;;;;4997693;28;20050;-74
2023/07/29 01:02:21;;;;;;;19.30;18.33;;;21.50;99.90;;;;;;5013107;28;20045;-74
2023/07/29 01:04:54;;;;;;;20.10;18.90;;;21.40;99.90;;;;;;5014162;28;20030;-74
2023/07/29 01:07:42;;;;;;;30.40;28.77;;;21.40;99.90;;;;;;5013970;28;20412;-74
2023/07/29 01:10:27;;;;;;;25.73;24.40;;;21.40;99.90;;;;;;5014054;28;20033;-74
2023/07/29 01:13:06;;;;;;;24.30;23.10;;;21.50;99.90;;;;;;5015068;28;20045;-74
2023/07/29 01:15:54;;;;;;;20.55;19.45;;;21.40;99.90;;;;;;5012709;28;20033;-73
2023/07/29 01:18:31;;;;;;;19.15;18.15;;;21.30;99.90;;;;;;4993974;28;20061;-74
2023/07/29 01:21:03;;;;;;;17.70;16.75;;;21.30;99.90;;;;;;5000384;28;20042;-74
2023/07/29 01:23:30;;;;;;;15.07;14.27;;;21.30;99.90;;;;;;5013805;28;20499;-74
2023/07/29 01:25:56;;;;;;;14.00;13.20;;;21.30;99.90;;;;;;5013617;28;20037;-74
2023/07/29 01:28:22;;;;;;;16.10;15.10;;;21.30;99.90;;;;;;4997271;28;20479;-74
2023/07/29 01:30:50;;;;;;;14.57;13.77;;;21.30;99.90;;;;;;5012863;28;20045;-74
2023/07/29 01:33:16;;;;;;;14.65;13.80;;;21.30;99.90;;;;;;5013255;28;20037;-74
2023/07/29 01:35:48;;;;;;;11.55;10.82;;;21.20;99.90;;;;;;5013165;28;20045;-74
2023/07/29 01:38:18;;;;;;;13.75;13.02;;;21.20;99.90;;;;;;5013567;28;20494;-74
2023/07/29 01:40:44;;;;;;;11.70;10.90;;;21.20;99.90;;;;;;5012976;28;20458;-73
2023/07/29 01:43:11;;;;;;;12.73;11.93;;;21.20;99.90;;;;;;5013569;28;20033;-74
2023/07/29 01:45:38;;;;;;;10.80;10.10;;;21.20;99.90;;;;;;5012803;28;20041;-73
2023/07/29 01:48:05;;;;;;;11.35;10.73;;;21.30;99.90;;;;;;5014227;28;20032;-74
2023/07/29 01:50:31;;;;;;;11.48;10.77;;;21.20;99.90;;;;;;5012824;28;20503;-74
2023/07/29 01:52:58;;;;;;;13.32;12.43;;;21.20;99.90;;;;;;5014553;28;20029;-74
2023/07/29 01:55:24;;;;;;;14.05;13.15;;;21.20;99.90;;;;;;5012858;28;20026;-73
2023/07/29 01:57:51;;;;;;;13.25;12.35;;;21.20;99.90;;;;;;5013822;28;20036;-74
2023/07/29 02:00:18;;;;;;;15.27;14.38;;;21.20;99.90;;;;;;5009416;28;20053;-75
2023/07/29 02:02:45;;;;;;;15.93;15.10;;;21.20;99.90;;;;;;5006574;28;20026;-74
2023/07/29 02:05:11;;;;;;;12.43;11.75;;;21.20;99.90;;;;;;5010828;28;20056;-74
2023/07/29 02:07:37;;;;;;;12.80;12.10;;;21.20;99.90;;;;;;5012766;28;20029;-73
2023/07/29 02:10:03;;;;;;;12.52;11.52;;;21.20;99.90;;;;;;5011592;28;20029;-73
2023/07/29 02:12:29;;;;;;;11.77;11.10;;;21.20;99.90;;;;;;5012490;28;20030;-74
2023/07/29 02:14:56;;;;;;;11.77;11.13;;;21.20;99.90;;;;;;5012334;28;20036;-74
2023/07/29 02:17:22;;;;;;;11.32;10.43;;;21.20;99.90;;;;;;5010673;28;20030;-74
2023/07/29 02:19:48;;;;;;;11.38;10.68;;;21.20;99.90;;;;;;5011464;28;20259;-74
2023/07/29 02:22:16;;;;;;;10.45;9.85;;;21.20;99.90;;;;;;5012215;28;20026;-73
2023/07/29 02:24:42;;;;;;;11.48;10.38;;;21.10;99.90;;;;;;5012524;28;20022;-74
2023/07/29 02:27:09;;;;;;;10.73;10.10;;;21.10;99.90;;;;;;5011475;28;20045;-74
2023/07/29 02:29:35;;;;;;;11.38;10.57;;;21.10;99.90;;;;;;5011849;28;20033;-73
2023/07/29 02:32:01;;;;;;;12.95;11.93;;;21.20;99.90;;;;;;5011762;28;20030;-74
2023/07/29 02:34:27;;;;;;;14.55;13.57;;;21.20;99.90;;;;;;5012317;28;20025;-74
2023/07/29 02:36:53;;;;;;;14.20;13.35;;;21.20;99.90;;;;;;5012560;28;20456;-73
2023/07/29 02:39:19;;;;;;;14.13;13.27;;;21.20;99.90;;;;;;5013602;28;20037;-74
2023/07/29 02:41:45;;;;;;;12.93;12.20;;;21.20;99.90;;;;;;5012017;28;20042;-73
2023/07/29 02:44:11;;;;;;;13.15;12.15;;;21.20;99.90;;;;;;5013174;28;20025;-74
2023/07/29 02:46:37;;;;;;;11.95;10.88;;;21.20;99.90;;;;;;5011569;28;20045;-74
2023/07/29 02:49:04;;;;;;;12.07;11.20;;;21.20;99.90;;;;;;5013277;28;20486;-74
2023/07/29 02:51:30;;;;;;;11.80;11.05;;;21.20;99.90;;;;;;5011783;28;20411;-74
2023/07/29 02:53:56;;;;;;;12.13;11.27;;;21.20;99.90;;;;;;5013595;28;20356;-74
2023/07/29 02:56:22;;;;;;;12.65;11.95;;;21.20;99.90;;;;;;5011797;28;20030;-74
2023/07/29 02:58:51;;;;;;;12.50;11.65;;;21.20;99.90;;;;;;5011540;28;20463;-74
2023/07/29 03:01:18;;;;;;;11.85;10.80;;;21.20;99.90;;;;;;5012577;28;20050;-74
2023/07/29 03:03:44;;;;;;;12.07;11.27;;;21.10;99.90;;;;;;5012060;28;20026;-74
2023/07/29 03:06:12;;;;;;;10.80;10.00;;;21.10;99.90;;;;;;5011476;28;20402;-73
2023/07/29 03:08:38;;;;;;;14.40;11.00;;;21.10;99.90;;;;;;5011795;28;20022;-74
2023/07/29 03:11:13;;;;;;;12.25;11.25;;;21.10;99.90;;;;;;5012718;28;20497;-74
2023/07/29 03:13:39;;;;;;;11.30;10.30;;;21.10;99.90;;;;;;5012595;28;20033;-73
2023/07/29 03:16:10;;;;;;;12.18;11.15;;;21.10;99.90;;;;;;5010936;28;20042;-73
2023/07/29 03:18:36;;;;;;;;;;;21.10;99.90;;;;;;5012100;28;20025;-74
2023/07/29 03:21:02;;;;;;;11.05;10.25;;;21.20;99.90;;;;;;5011196;28;19917;-74
2023/07/29 03:23:29;;;;;;;12.07;11.35;;;21.20;99.90;;;;;;5011684;28;20034;-74
2023/07/29 03:25:56;;;;;;;12.77;11.63;;;21.10;99.90;;;;;;5011793;28;20038;-74
2023/07/29 03:28:27;;;;;;;13.23;12.23;;;21.10;99.90;;;;;;5012345;28;20032;-74
2023/07/29 03:30:56;;;;;;;13.80;12.63;;;21.10;99.90;;;;;;5010745;28;20038;-73
2023/07/29 03:33:22;;;;;;;13.80;12.90;;;21.10;99.90;;;;;;5011799;28;20029;-74
2023/07/29 03:35:49;;;;;;;14.52;13.60;;;21.00;99.90;;;;;;4994860;28;20427;-74
2023/07/29 03:38:15;;;;;;;14.57;13.68;;;21.10;99.90;;;;;;4994759;28;20044;-74
2023/07/29 03:40:41;;;;;;;16.08;14.98;;;21.10;99.90;;;;;;5011147;28;20038;-74
2023/07/29 03:43:07;;;;;;;16.73;15.70;;;21.10;99.90;;;;;;5011048;28;20029;-74
2023/07/29 03:45:34;;;;;;;19.05;17.75;;;21.10;99.90;;;;;;5010746;28;20037;-74
2023/07/29 03:48:00;;;;;;;17.85;16.67;;;21.10;99.90;;;;;;5012546;28;20030;-74
2023/07/29 03:50:26;;;;;;;19.85;18.25;;;21.10;99.90;;;;;;5010843;28;20049;-74
2023/07/29 03:52:52;;;;;;;17.73;16.48;;;21.10;99.90;;;;;;5012932;28;20042;-74
2023/07/29 03:55:18;;;;;;;16.13;14.77;;;21.10;99.90;;;;;;5011144;28;20383;-74
2023/07/29 03:57:44;;;;;;;16.08;15.05;;;21.20;99.90;;;;;;5012116;28;20101;-74
2023/07/29 04:00:11;;;;;;;15.85;14.80;;;21.10;99.90;;;;;;5010116;28;20042;-74
2023/07/29 04:02:40;;;;;;;16.80;15.60;;;21.10;99.90;;;;;;5011291;28;20022;-74
2023/07/29 04:05:08;;;;;;;17.05;15.75;;;21.10;99.90;;;;;;5011185;28;20033;-74
2023/07/29 04:07:37;;;;;;;16.90;15.80;;;21.10;99.90;;;;;;5012142;28;20479;-73
2023/07/29 04:10:04;;;;;;;17.50;16.42;;;21.10;99.90;;;;;;5012238;28;20034;-73
2023/07/29 04:12:30;;;;;;;14.77;13.68;;;21.10;99.90;;;;;;4993848;28;20042;-74
2023/07/29 04:14:56;;;;;;;14.32;13.23;;;21.10;99.90;;;;;;5012271;28;20045;-73
2023/07/29 04:17:22;;;;;;;14.38;12.95;;;21.10;99.90;;;;;;5010468;28;20030;-73
2023/07/29 04:19:48;;;;;;;13.85;12.77;;;21.10;99.90;;;;;;5012094;28;20038;-73
2023/07/29 04:22:15;;;;;;;13.95;12.75;;;21.10;99.90;;;;;;5012332;28;20030;-73
2023/07/29 04:24:42;;;;;;;15.35;13.95;;;21.10;99.90;;;;;;5011116;28;20229;-73
2023/07/29 04:27:08;;;;;;;13.65;12.40;;;21.10;99.90;;;;;;5010822;28;20468;-74
2023/07/29 04:29:35;;;;;;;13.25;11.88;;;21.00;99.90;;;;;;5011053;28;20030;-74
2023/07/29 04:32:05;;;;;;;13.43;12.32;;;21.00;99.90;;;;;;5010559;28;20539;-73
2023/07/29 04:34:31;;;;;;;12.57;11.68;;;21.00;99.90;;;;;;5012309;28;20018;-74
2023/07/29 04:36:57;;;;;;;14.57;13.23;;;21.10;99.90;;;;;;5012019;28;20038;-74
2023/07/29 04:39:23;;;;;;;12.85;11.75;;;21.10;99.90;;;;;;4994416;28;20034;-73
2023/07/29 04:41:49;;;;;;;13.88;12.77;;;21.10;99.90;;;;;;5010661;28;20631;-73
2023/07/29 04:44:15;;;;;;;12.98;12.07;;;21.10;99.90;;;;;;5012129;28;20030;-73
2023/07/29 04:46:42;;;;;;;14.75;13.65;;;20.90;99.90;;;;;;5010559;28;20034;-72
2023/07/29 04:49:08;;;;;;;13.85;12.73;;;21.00;99.90;;;;;;5012090;28;20037;-74
2023/07/29 04:51:34;;;;;;;13.55;12.60;;;21.00;99.90;;;;;;5013812;28;20052;-74
2023/07/29 04:54:00;;;;;;;13.88;12.95;;;20.90;99.90;;;;;;5014443;28;20383;-74
2023/07/29 04:56:26;;;;;;;15.60;14.32;;;21.00;99.90;;;;;;5014042;28;20037;-74
2023/07/29 04:58:53;;;;;;;14.20;13.07;;;21.00;99.90;;;;;;5014225;28;20479;-73
2023/07/29 05:01:19;;;;;;;12.40;11.63;;;21.10;99.90;;;;;;5014885;28;20554;-74
2023/07/29 05:03:45;;;;;;;13.90;12.95;;;21.10;99.90;;;;;;5015547;28;20018;-74
2023/07/29 05:06:11;;;;;;;13.50;12.57;;;21.10;99.90;;;;;;5014058;28;20490;-74
2023/07/29 05:08:37;;;;;;;11.52;10.70;;;21.10;99.90;;;;;;5013396;28;20030;-74
2023/07/29 05:11:03;;;;;;;13.35;12.48;;;21.10;99.90;;;;;;5014834;28;20383;-74
2023/07/29 05:13:29;;;;;;;13.20;11.95;;;21.00;99.90;;;;;;5015043;28;20032;-73
2023/07/29 05:15:56;;;;;;;12.40;11.50;;;21.10;99.90;;;;;;5013287;28;20037;-74
2023/07/29 05:18:22;;;;;;;13.85;12.93;;;21.10;99.90;;;;;;5013902;28;20026;-74
2023/07/29 05:20:48;;;;;;;13.70;12.65;;;21.10;99.90;;;;;;5015022;28;20038;-73
2023/07/29 05:23:14;;;;;;;13.73;12.68;;;21.00;99.90;;;;;;5013617;28;20030;-73
2023/07/29 05:25:40;;;;;;;14.13;13.05;;;21.00;99.90;;;;;;5013825;28;20486;-74
2023/07/29 05:28:06;;;;;;;14.70;13.38;;;21.00;99.90;;;;;;5013667;28;20041;-74
2023/07/29 05:30:36;;;;;;;15.63;14.63;;;21.10;99.90;;;;;;5014496;28;20475;-74
2023/07/29 05:33:07;;;;;;;15.93;15.00;;;21.10;99.90;;;;;;4998157;28;20494;-75
2023/07/29 05:35:33;;;;;;;16.85;15.55;;;21.10;99.90;;;;;;5014911;28;20029;-73
2023/07/29 05:37:59;;;;;;;17.35;16.25;;;21.20;99.90;;;;;;5014500;28;20044;-74
2023/07/29 05:40:25;;;;;;;13.18;12.07;;;21.20;99.90;;;;;;5013404;28;20471;-74
2023/07/29 05:42:52;;;;;;;18.88;17.67;;;21.20;99.90;;;;;;5014543;28;20030;-73
2023/07/29 05:45:18;;;;;;;21.35;20.10;;;21.20;99.90;;;;;;5013078;28;20033;-73
2023/07/29 05:47:44;;;;;;;21.75;20.42;;;21.30;99.90;;;;;;5013485;28;20464;-74
2023/07/29 05:50:10;;;;;;;21.27;19.88;;;21.30;99.90;;;;;;5014247;28;20060;-73
2023/07/29 05:52:36;;;;;;;23.17;21.67;;;21.40;99.90;;;;;;4996970;28;20034;-73
2023/07/29 05:55:03;;;;;;;23.23;21.73;;;21.40;99.90;;;;;;5013294;28;20395;-74
2023/07/29 05:57:29;;;;;;;26.45;24.90;;;21.50;99.90;;;;;;5014417;28;20037;-73
2023/07/29 05:59:55;;;;;;;28.80;27.08;;;21.50;99.90;;;;;;5014569;28;20034;-73
2023/07/29 06:02:21;;;;;;;27.98;26.23;;;21.50;99.90;;;;;;5012516;28;20036;-73
2023/07/29 06:04:47;;;;;;;27.23;25.67;;;21.50;99.90;;;;;;5013137;28;20033;-73
2023/07/29 06:07:13;;;;;;;26.77;25.17;;;21.60;99.90;;;;;;5012783;28;20379;-73
2023/07/29 06:09:40;;;;;;;25.73;24.33;;;21.60;99.90;;;;;;5013037;28;20029;-73
2023/07/29 06:12:06;;;;;;;29.10;27.23;;;21.70;99.90;;;;;;5014157;28;20030;-73
2023/07/29 06:14:32;;;;;;;26.80;25.33;;;21.70;99.90;;;;;;5014084;28;20030;-73
2023/07/29 06:16:58;;;;;;;28.42;26.63;;;21.80;99.90;;;;;;5012306;28;20042;-73
2023/07/29 06:19:24;;;;;;;30.27;28.55;;;21.70;99.90;;;;;;5012716;28;20464;-73
2023/07/29 06:21:52;;;;;;;26.65;25.08;;;21.70;99.90;;;;;;5012499;28;20046;-73
2023/07/29 06:24:18;;;;;;;28.20;26.45;;;21.80;99.90;;;;;;5014028;28;20368;-74
2023/07/29 06:26:44;;;;;;;30.08;28.30;;;21.70;99.90;;;;;;5013927;28;20030;-73
2023/07/29 06:29:10;;;;;;;29.50;27.70;;;21.70;99.90;;;;;;5013816;28;20029;-73
2023/07/29 06:31:36;;;;;;;27.48;25.85;;;21.70;99.90;;;;;;5013236;28;20041;-73
2023/07/29 06:34:02;;;;;;;23.70;22.35;;;21.80;99.90;;;;;;5013731;28;20041;-72
2023/07/29 06:36:28;;;;;;;22.50;21.08;;;21.80;99.90;;;;;;5012259;28;20026;-73
2023/07/29 06:38:54;;;;;;;26.50;24.92;;;21.90;99.90;;;;;;5013631;28;20029;-73
2023/07/29 06:41:20;;;;;;;21.13;19.88;;;21.80;99.90;;;;;;5013645;28;20046;-73
2023/07/29 06:43:46;;;;;;;20.85;19.60;;;21.90;99.90;;;;;;5012332;28;20038;-73
2023/07/29 06:46:12;;;;;;;16.30;15.18;;;21.80;99.90;;;;;;5011696;28;20399;-73
2023/07/29 06:48:38;;;;;;;14.68;13.75;;;21.80;99.90;;;;;;5013372;28;20080;-74
2023/07/29 06:51:05;;;;;;;14.18;13.07;;;21.90;99.90;;;;;;5012939;28;20050;-74
2023/07/29 06:53:31;;;;;;;12.50;11.68;;;22.10;99.90;;;;;;5012331;28;20622;-73
2023/07/29 06:55:57;;;;;;;15.45;14.45;;;22.00;99.90;;;;;;5013526;28;20037;-74
2023/07/29 06:58:23;;;;;;;14.18;13.20;;;22.10;99.90;;;;;;5012184;28;20033;-73
2023/07/29 07:00:49;;;;;;;14.70;13.70;;;22.10;99.90;;;;;;5011513;28;20422;-74
2023/07/29 07:03:15;;;;;;;31.23;29.48;;;22.10;99.90;;;;;;5013215;28;20044;-76
2023/07/29 07:05:41;;;;;;;24.92;23.38;;;22.10;99.90;;;;;;5011685;28;20383;-73
2023/07/29 07:08:07;;;;;;;31.52;29.77;;;22.10;99.90;;;;;;5013034;28;20037;-73
2023/07/29 07:10:33;;;;;;;29.02;27.23;;;22.10;99.90;;;;;;5013385;28;20391;-74
2023/07/29 07:12:59;;;;;;;32.10;30.35;;;22.10;99.90;;;;;;5011710;28;20022;-74
2023/07/29 07:15:26;;;;;;;30.65;28.88;;;22.10;99.90;;;;;;5012469;28;20034;-73
2023/07/29 07:17:52;;;;;;;24.00;22.63;;;22.00;99.90;;;;;;5012852;28;20368;-73
2023/07/29 07:20:18;;;;;;;33.03;31.17;;;22.00;99.90;;;;;;5012576;28;20034;-73
2023/07/29 07:22:44;;;;;;;37.03;34.85;;;22.10;99.90;;;;;;5011837;28;20390;-73
2023/07/29 07:25:10;;;;;;;25.50;24.08;;;22.10;99.90;;;;;;5011773;28;20036;-73
2023/07/29 07:27:36;;;;;;;29.70;28.08;;;22.10;99.90;;;;;;5012908;28;20037;-74
2023/07/29 07:30:03;;;;;;;24.42;22.90;;;22.20;99.90;;;;;;5011126;28;20478;-73
2023/07/29 07:32:29;;;;;;;32.67;30.90;;;22.10;99.90;;;;;;5012775;28;20034;-73
2023/07/29 07:34:55;;;;;;;27.08;25.60;;;22.10;99.90;;;;;;5012419;28;20456;-73
2023/07/29 07:37:21;;;;;;;29.45;27.85;;;22.10;99.90;;;;;;5012772;28;20459;-74
2023/07/29 07:39:47;;;;;;;29.85;27.92;;;22.20;99.90;;;;;;4994977;28;20045;-74
2023/07/29 07:42:13;;;;;;;26.30;24.55;;;22.20;99.90;;;;;;5011325;28;20036;-74
2023/07/29 07:44:39;;;;;;;23.27;21.73;;;22.20;99.90;;;;;;5012975;28;20049;-74
2023/07/29 07:47:06;;;;;;;15.55;14.45;;;22.30;99.90;;;;;;5011264;28;20033;-74
2023/07/29 07:49:32;;;;;;;15.15;14.23;;;22.30;99.90;;;;;;5011923;28;20049;-74
2023/07/29 07:51:58;;;;;;;16.17;15.07;;;22.40;99.90;;;;;;5011444;28;20037;-74
2023/07/29 07:54:24;;;;;;;14.88;14.00;;;22.50;99.90;;;;;;5011283;28;20459;-74
2023/07/29 07:56:50;;;;;;;14.50;13.45;;;22.60;99.90;;;;;;5012427;28;20026;-74
2023/07/29 07:59:16;;;;;;;15.57;14.60;;;22.70;99.90;;;;;;5011285;28;20391;-74
2023/07/29 08:01:42;;;;;;;13.90;13.05;;;22.80;99.90;;;;;;5011857;28;20046;-74
2023/07/29 08:04:08;;;;;;;16.98;15.95;;;22.90;99.90;;;;;;5011174;28;20065;-74
2023/07/29 08:06:35;;;;;;;16.63;15.57;;;22.90;99.90;;;;;;5011472;28;20034;-73
2023/07/29 08:09:01;;;;;;;19.38;18.17;;;23.00;99.90;;;;;;5011370;28;20053;-74
2023/07/29 08:11:27;;;;;;;20.20;18.90;;;23.10;99.90;;;;;;5011280;28;20026;-74
2023/07/29 08:13:53;;;;;;;19.45;18.27;;;23.10;99.90;;;;;;5011146;28;20029;-73
2023/07/29 08:16:19;;;;;;;19.75;18.63;;;23.20;99.90;;;;;;5010530;28;20490;-74
2023/07/29 08:18:47;;;;;;;21.30;20.13;;;23.30;99.90;;;;;;5012069;28;20030;-73
2023/07/29 08:21:13;;;;;;;23.80;22.27;;;23.30;99.90;;;;;;5012273;28;20044;-74
2023/07/29 08:23:39;;;;;;;24.10;22.67;;;23.30;99.90;;;;;;5012210;28;20026;-73
2023/07/29 08:26:05;;;;;;;22.77;21.55;;;23.40;99.90;;;;;;5013652;28;20026;-74
2023/07/29 08:28:33;;;;;;;23.75;22.45;;;23.50;99.90;;;;;;5014799;28;20030;-74
2023/07/29 08:30:59;;;;;;;23.35;21.88;;;23.60;99.90;;;;;;5014448;28;20030;-74
2023/07/29 08:33:25;;;;;;;25.58;24.08;;;23.80;99.90;;;;;;5015799;28;20030;-73
2023/07/29 08:35:51;;;;;;;21.00;19.83;;;23.80;99.90;;;;;;5014614;28;20045;-74
2023/07/29 08:38:17;;;;;;;20.52;19.13;;;24.00;99.90;;;;;;5014830;28;20386;-74
2023/07/29 08:41:19;;;;;;;21.90;20.77;;;24.10;99.90;;;;;;4998185;28;20046;-73
2023/07/29 08:44:09;;;;;;;20.13;19.02;;;24.30;99.90;;;;;;5014012;28;20034;-74
2023/07/29 08:46:35;;;;;;;20.50;19.30;;;24.30;99.90;;;;;;5012201;28;20038;-74
2023/07/29 08:49:02;;;;;;;18.83;17.83;;;24.30;99.90;;;;;;5015680;28;20391;-74
2023/07/29 08:51:28;;;;;;;20.58;19.48;;;24.40;99.90;;;;;;5014615;28;20045;-73
2023/07/29 08:53:54;;;;;;;20.48;19.42;;;24.30;99.90;;;;;;5014588;28;20383;-74
2023/07/29 08:56:20;;;;;;;21.33;20.10;;;24.20;99.90;;;;;;5014445;28;20037;-73
2023/07/29 08:58:46;;;;;;;21.13;19.95;;;24.20;99.90;;;;;;5014402;28;20034;-73
2023/07/29 09:01:12;;;;;;;19.58;18.48;;;24.30;99.90;;;;;;5013484;28;20479;-74
2023/07/29 09:03:38;;;;;;;19.23;18.15;;;24.30;99.90;;;;;;5014270;28;20037;-74
2023/07/29 09:06:05;;;;;;;18.75;17.27;;;24.40;99.90;;;;;;5015468;28;20034;-74
2023/07/29 09:08:31;;;;;;;19.25;18.15;;;24.40;99.90;;;;;;5012087;28;20038;-74
2023/07/29 09:10:57;;;;;;;17.73;16.77;;;24.50;99.90;;;;;;5015195;28;20517;-73
2023/07/29 09:13:23;;;;;;;18.48;17.48;;;24.50;99.90;;;;;;5015326;28;20029;-73
2023/07/29 09:15:49;;;;;;;18.83;17.73;;;24.50;99.90;;;;;;5013117;28;20034;-73
2023/07/29 09:18:16;;;;;;;19.35;18.25;;;24.60;99.90;;;;;;5013701;28;20040;-74
2023/07/29 09:20:42;;;;;;;19.10;18.00;;;24.70;99.90;;;;;;5015082;28;20041;-74
2023/07/29 09:23:12;;;;;;;19.63;18.55;;;24.70;99.90;;;;;;5014063;28;20042;-74
2023/07/29 09:25:39;;;;;;;17.95;17.00;;;24.80;99.90;;;;;;5013917;28;20033;-74
2023/07/29 09:28:12;;;;;;;19.35;18.33;;;24.90;99.90;;;;;;5013831;28;20033;-73
2023/07/29 09:30:39;;;;;;;22.98;21.67;;;25.00;99.90;;;;;;5013161;28;20046;-74
2023/07/29 09:33:05;;;;;;;21.58;20.48;;;25.00;99.90;;;;;;4997333;28;20487;-74
2023/07/29 09:35:33;;;;;;;18.95;17.85;;;24.90;99.90;;;;;;5013610;28;20032;-74
2023/07/29 09:37:59;;;;;;;20.92;19.70;;;25.00;99.90;;;;;;5013018;28;20038;-74
2023/07/29 09:40:25;;;;;;;21.50;20.20;;;25.00;99.90;;;;;;5013571;28;20026;-74
2023/07/29 09:42:53;;;;;;;21.50;20.30;;;25.10;99.90;;;;;;5013288;28;20041;-74
2023/07/29 09:45:26;;;;;;;21.33;20.17;;;25.20;99.90;;;;;;5012331;28;20045;-74
2023/07/29 09:47:52;;;;;;;22.30;21.20;;;25.40;99.90;;;;;;5013478;28;20034;-74
2023/07/29 09:50:19;;;;;;;24.45;23.25;;;25.40;99.90;;;;;;5014304;28;20415;-74
2023/07/29 09:52:45;;;;;;;21.75;20.60;;;25.40;99.90;;;;;;5014487;28;20030;-74
2023/07/29 09:55:17;;;;;;;24.42;23.10;;;25.40;99.90;;;;;;5013482;28;20026;-74
2023/07/29 09:57:43;;;;;;;23.58;22.27;;;25.30;99.90;;;;;;5013165;28;20030;-74
2023/07/29 10:00:13;;;;;;;24.98;23.67;;;25.20;99.90;;;;;;5013524;28;20033;-73
2023/07/29 10:02:39;;;;;;;28.20;26.65;;;25.10;99.90;;;;;;5011951;28;20050;-74
2023/07/29 10:05:07;;;;;;;20.77;19.63;;;25.00;99.90;;;;;;5013239;28;20033;-74
2023/07/29 10:07:37;;;;;;;21.67;20.52;;;25.10;99.90;;;;;;5012615;28;20026;-74
2023/07/29 10:10:04;;;;;;;20.95;19.77;;;25.10;99.90;;;;;;5012918;28;20024;-73
2023/07/29 10:12:31;;;;;;;22.23;20.98;;;25.10;99.90;;;;;;5012853;28;20383;-76
2023/07/29 10:15:07;;;;;;;21.65;20.52;;;25.20;99.90;;;;;;5012496;28;20033;-76
2023/07/29 10:17:34;;;;;;;22.63;21.23;;;25.40;99.90;;;;;;4996817;28;20046;-76
2023/07/29 10:20:00;;;;;;;20.67;19.58;;;25.50;99.90;;;;;;4994956;28;20037;-74
2023/07/29 10:22:41;;;;;;;20.60;19.40;;;25.60;99.90;;;;;;5011282;28;20049;-73
2023/07/29 10:25:22;;;;;;;22.48;21.20;;;25.70;99.90;;;;;;5013026;28;20021;-74
2023/07/29 10:28:00;;;;;;;24.65;23.35;;;25.80;99.90;;;;;;5012305;28;20743;-74
2023/07/29 10:30:26;;;;;;;27.52;25.92;;;25.90;99.90;;;;;;5011955;28;20037;-74
2023/07/29 10:32:53;;;;;;;33.15;31.52;;;26.00;99.90;;;;;;5012571;28;20034;-74
2023/07/29 10:35:19;;;;;;;36.45;34.60;;;26.00;99.90;;;;;;5012386;28;20030;-77
2023/07/29 10:37:45;;;;;;;36.05;34.15;;;26.10;99.90;;;;;;5012498;28;20034;-73
2023/07/29 10:40:12;;;;;;;39.22;37.17;;;26.20;99.90;;;;;;5012365;28;20160;-73
2023/07/29 10:42:38;;;;;;;43.25;41.03;;;26.30;99.90;;;;;;5013174;28;20502;-74
2023/07/29 10:45:20;;;;;;;55.28;52.58;;;26.30;99.90;;;;;;5012015;28;20412;-74
2023/07/29 10:47:47;;;;;;;41.65;39.60;;;26.30;99.90;;;;;;5011959;28;20032;-74
2023/07/29 10:50:20;;;;;;;37.55;35.55;;;26.40;99.90;;;;;;5011189;28;20042;-74
2023/07/29 10:52:51;;;;;;;34.40;32.55;;;26.50;99.90;;;;;;5012256;28;20026;-74
2023/07/29 10:55:28;;;;;;;37.35;35.50;;;26.80;99.90;;;;;;5013220;28;20026;-74
2023/07/29 10:58:16;;;;;;;40.33;38.25;;;26.90;99.90;;;;;;5011709;28;20030;-74
2023/07/29 11:00:43;;;;;;;52.78;49.97;;;26.90;99.90;;;;;;5011247;28;20038;-73
2023/07/29 11:03:09;;;;;;;43.92;41.70;;;26.70;99.90;;;;;;5012168;28;20038;-74
2023/07/29 11:05:52;;;;;;;52.70;50.00;;;26.60;99.90;;;;;;5011782;28;20025;-74
2023/07/29 11:08:19;;;;;;;73.38;69.80;;;26.40;99.90;;;;;;5011951;28;20022;-73
2023/07/29 11:10:57;;;;;;;106.55;101.25;;;26.40;99.90;;;;;;5011352;28;20038;-73
2023/07/29 11:13:26;;;;;;;39.45;37.47;;;26.40;99.90;;;;;;5011694;28;20030;-73
2023/07/29 11:15:53;;;;;;;37.75;35.80;;;26.50;99.90;;;;;;5008532;28;20049;-73
2023/07/29 11:18:19;;;;;;;40.90;38.88;;;26.70;99.90;;;;;;4993217;28;20057;-73
2023/07/29 11:20:45;;;;;;;48.88;46.38;;;26.80;99.90;;;;;;4996553;28;20041;-73
2023/07/29 11:23:11;;;;;;;58.88;55.97;;;27.00;99.90;;;;;;5013401;28;20391;-73
2023/07/29 11:25:38;;;;;;;65.85;62.55;;;27.10;99.90;;;;;;5012639;28;20033;-74
2023/07/29 11:28:04;;;;;;;59.95;56.95;;;27.20;99.90;;;;;;5012442;28;20030;-74
2023/07/29 11:30:30;;;;;;;63.63;60.53;;;27.30;99.90;;;;;;5010944;28;20042;-73
2023/07/29 11:32:57;;;;;;;104.47;99.57;;;27.50;99.90;;;;;;5011319;28;20498;-74
2023/07/29 11:35:23;;;;;;;123.40;117.50;;;27.60;99.90;;;;;;5011340;28;20022;-73
2023/07/29 11:37:51;;;;;;;99.00;94.15;;;27.70;99.90;;;;;;5011500;28;20030;-74
2023/07/29 11:40:19;;;;;;;68.80;65.15;;;27.80;99.90;;;;;;5010798;28;20360;-74
2023/07/29 11:42:45;;;;;;;64.75;61.55;;;27.90;99.90;;;;;;5011458;28;20041;-74
2023/07/29 11:45:12;;;;;;;69.72;66.18;;;27.90;99.90;;;;;;5010772;28;20018;-73
2023/07/29 11:47:38;;;;;;;39.17;37.20;;;28.00;99.90;;;;;;5011530;28;20026;-74
2023/07/29 11:50:06;;;;;;;59.38;56.40;;;28.10;99.90;;;;;;5012408;28;20038;-74
2023/07/29 11:52:33;;;;;;;74.60;70.90;;;28.10;99.90;;;;;;5010993;28;20030;-74
2023/07/29 11:55:00;;;;;;;81.25;77.35;;;28.10;99.90;;;;;;5010874;28;20029;-74
2023/07/29 11:57:26;;;;;;;57.17;54.35;;;28.00;99.90;;;;;;5011119;28;20038;-74
2023/07/29 11:59:52;;;;;;;85.97;81.95;;;27.80;99.90;;;;;;5013669;28;20030;-74
2023/07/29 12:02:19;;;;;;;88.85;84.57;;;27.70;99.90;;;;;;5014370;28;20415;-73
2023/07/29 12:04:46;;;;;;;75.70;72.10;;;27.60;99.90;;;;;;4999105;28;20045;-73
2023/07/29 12:07:13;;;;;;;65.82;62.60;;;27.50;99.90;;;;;;5014980;28;20033;-73
2023/07/29 12:09:39;;;;;;;61.42;58.45;;;27.40;99.90;;;;;;4998715;28;20033;-73
2023/07/29 12:12:06;;;;;;;47.70;45.38;;;27.50;99.90;;;;;;5014997;28;20034;-74
2023/07/29 12:14:33;;;;;;;48.97;46.58;;;27.60;99.90;;;;;;5015076;28;20088;-74
2023/07/29 12:17:03;;;;;;;48.47;46.08;;;27.80;99.90;;;;;;5003023;28;20117;-74
2023/07/29 12:19:34;;;;;;;54.00;51.40;;;27.90;99.90;;;;;;4996758;28;20459;-73
2023/07/29 12:22:04;;;;;;;49.05;46.53;;;27.90;99.90;;;;;;5009971;28;20406;-74
2023/07/29 12:24:31;;;;;;;49.80;47.22;;;27.90;99.90;;;;;;5014447;28;20029;-73
2023/07/29 12:26:57;;;;;;;56.20;53.50;;;27.70;99.90;;;;;;5014643;28;20391;-74
2023/07/29 12:29:23;;;;;;;55.92;53.22;;;27.60;99.90;;;;;;5016057;28;20025;-74